Time;durP1;ratioP1;P1;durP2;ratioP2;P2;SDS_P1;SDS_P2;PMS_P1;PMS_P2;Temp;Humidity;BMP_temperature;BMP_pressure;BME280_temperature;BME280_humidity;BME280_pressure;Samples;Min_cycle;Max_cycle;Signal;HPM_P1;HPM_P2
2022/03/17 00:01:57;;;;;;;24.15;21.92;;;;;;;11.69;55.22;100805.44;10352916;28;20071;-61
2022/03/17 00:06:59;;;;;;;27.33;24.63;;;;;;;11.71;55.39;100818.66;10348868;28;20046;-62
2022/03/17 00:12:00;;;;;;;25.73;23.33;;;;;;;11.70;55.31;100811.66;10347670;28;20051;-61
2022/03/17 00:17:02;;;;;;;26.58;23.88;;;;;;;11.61;55.00;100798.03;10350880;28;20491;-60
2022/03/17 00:22:09;;;;;;;27.45;24.77;;;;;;;11.58;55.27;100797.44;10353235;28;20049;-61
2022/03/17 00:27:10;;;;;;;30.00;26.98;;;;;;;11.32;55.41;100776.28;10365760;28;20053;-61
2022/03/17 00:32:12;;;;;;;28.80;25.83;;;;;;;11.36;55.73;100787.53;10362607;28;20077;-61
2022/03/17 00:37:13;;;;;;;27.55;24.88;;;;;;;11.41;55.57;100802.22;10350490;28;20045;-61
2022/03/17 00:42:15;;;;;;;29.13;26.33;;;;;;;11.29;55.56;100790.66;10354432;28;20144;-60
2022/03/17 00:47:16;;;;;;;29.90;26.98;;;;;;;11.39;55.60;100805.97;10353973;28;20049;-60
2022/03/17 00:52:20;;;;;;;30.20;27.20;;;;;;;11.38;55.68;100810.44;10350029;28;20207;-60
2022/03/17 00:57:21;;;;;;;30.20;27.38;;;;;;;11.36;55.58;100807.03;10344939;28;20046;-59
2022/03/17 01:02:23;;;;;;;30.70;27.70;;;;;;;11.34;55.69;100810.78;10347447;28;20459;-61
2022/03/17 01:07:25;;;;;;;30.58;27.60;;;;;;;11.30;55.33;100810.16;10351016;28;20409;-60
2022/03/17 01:12:26;;;;;;;30.08;27.17;;;;;;;11.35;55.58;100808.00;10351533;28;20049;-62
2022/03/17 01:17:28;;;;;;;29.95;27.10;;;;;;;11.35;55.46;100808.00;10345860;28;20184;-61
2022/03/17 01:22:29;;;;;;;29.63;26.73;;;;;;;11.36;55.33;100795.53;10346566;28;20050;-60
2022/03/17 01:27:31;;;;;;;29.95;27.15;;;;;;;11.35;55.58;100792.03;10348887;28;20368;-60
2022/03/17 01:32:32;;;;;;;29.13;26.30;;;;;;;11.31;55.44;100786.06;10345532;28;20424;-60
2022/03/17 01:37:34;;;;;;;30.50;27.45;;;;;;;11.29;55.50;100790.66;10349491;28;20068;-61
2022/03/17 01:42:36;;;;;;;29.63;26.75;;;;;;;11.28;55.29;100780.13;10349876;28;20049;-61
2022/03/17 01:47:38;;;;;;;30.30;27.23;;;;;;;11.30;55.22;100778.19;10350595;28;20136;-61
2022/03/17 01:52:40;;;;;;;29.83;26.95;;;;;;;11.29;55.15;100790.66;10356004;28;20049;-61
2022/03/17 01:57:42;;;;;;;30.50;27.50;;;;;;;11.31;55.11;100780.72;10354504;28;20053;-61
2022/03/17 02:02:50;;;;;;;30.63;27.58;;;;;;;11.34;54.95;100794.81;10356111;28;20595;-60
2022/03/17 02:07:52;;;;;;;30.10;27.15;;;;;;;11.32;55.03;100790.44;10357391;28;20054;-61
2022/03/17 02:13:09;;;;;;;31.65;28.63;;;;;;;11.35;54.81;100797.34;10354324;28;20403;-59
2022/03/17 02:18:10;;;;;;;31.58;28.60;;;;;;;11.37;54.68;100791.91;10357439;28;20100;-63
2022/03/17 02:28:32;;;;;;;29.42;26.60;;;;;;;11.30;54.67;100783.50;10354712;28;20649;-61
2022/03/17 02:33:37;;;;;;;30.25;27.38;;;;;;;11.25;54.51;100785.69;10355125;28;20559;-61
2022/03/17 02:38:40;;;;;;;29.17;26.38;;;;;;;11.18;54.94;100785.28;10357459;28;20062;-61
2022/03/17 02:43:43;;;;;;;30.08;27.27;;;;;;;11.17;54.83;100794.25;10356211;28;20550;-60
2022/03/17 02:48:45;;;;;;;29.77;26.88;;;;;;;11.27;55.14;100805.06;10354993;28;20433;-60
2022/03/17 02:53:48;;;;;;;30.63;27.73;;;;;;;11.24;55.10;100800.81;10353214;28;20136;-60
2022/03/17 02:58:49;;;;;;;29.42;26.77;;;;;;;11.23;54.91;100809.78;10354655;28;20053;-60
2022/03/17 03:03:51;;;;;;;29.20;26.30;;;;;;;11.23;54.97;100803.56;10352228;28;20409;-60
2022/03/17 03:08:52;;;;;;;30.83;27.83;;;;;;;11.20;54.64;100802.03;10351843;28;20053;-60
2022/03/17 03:13:54;;;;;;;30.70;27.67;;;;;;;11.07;54.90;100782.56;10352220;28;20152;-60
2022/03/17 03:18:55;;;;;;;30.98;27.98;;;;;;;11.05;54.99;100784.47;10354979;28;20057;-60
2022/03/17 03:23:57;;;;;;;30.15;27.20;;;;;;;10.93;55.16;100789.78;10358311;28;20131;-60
2022/03/17 03:28:59;;;;;;;30.55;27.63;;;;;;;10.98;55.29;100788.59;10355599;28;20481;-60
2022/03/17 03:34:00;;;;;;;30.52;27.52;;;;;;;10.99;54.92;100787.59;10350069;28;20056;-60
2022/03/17 03:39:02;;;;;;;29.75;26.70;;;;;;;11.00;55.03;100774.16;10352483;28;20125;-61
2022/03/17 03:44:04;;;;;;;29.45;26.60;;;;;;;10.95;55.00;100781.66;10356005;28;20068;-60
2022/03/17 03:49:05;;;;;;;29.33;26.33;;;;;;;10.89;54.97;100780.28;10357709;28;20049;-61
2022/03/17 03:54:13;;;;;;;30.35;27.42;;;;;;;10.97;54.97;100798.38;10352806;28;20084;-60
2022/03/17 03:59:20;;;;;;;28.33;25.52;;;;;;;10.98;54.93;100809.91;10351801;28;20736;-60
2022/03/17 04:04:24;;;;;;;29.27;26.23;;;;;;;11.05;54.57;100816.44;10354367;28;20041;-60
2022/03/17 04:09:34;;;;;;;28.05;25.38;;;;;;;11.06;54.55;100834.16;10355028;28;20134;-61
2022/03/17 04:14:37;;;;;;;28.35;25.55;;;;;;;11.01;54.28;100841.63;10346705;28;20129;-61
2022/03/17 04:19:38;;;;;;;28.48;25.70;;;;;;;10.93;53.99;100850.19;10352161;28;20184;-60
2022/03/17 04:24:40;;;;;;;27.67;24.80;;;;;;;10.93;54.01;100861.69;10350746;28;20088;-61
2022/03/17 04:29:41;;;;;;;28.92;26.13;;;;;;;10.88;54.38;100858.47;10349580;28;20487;-60
2022/03/17 04:34:42;;;;;;;30.42;27.35;;;;;;;10.76;54.32;100835.41;10351051;28;20057;-62
2022/03/17 04:39:44;;;;;;;27.60;24.85;;;;;;;10.75;54.19;100849.72;10342483;28;20053;-60
2022/03/17 04:44:45;;;;;;;27.50;24.90;;;;;;;10.82;54.30;100861.59;10355329;28;20453;-62
2022/03/17 04:49:47;;;;;;;29.77;26.88;;;;;;;10.75;54.32;100860.34;10351629;28;20107;-62
2022/03/17 04:54:49;;;;;;;29.42;26.45;;;;;;;10.74;54.86;100859.50;10350997;28;20145;-63
2022/03/17 04:59:51;;;;;;;29.35;26.52;;;;;;;10.80;54.59;100866.19;10353261;28;20057;-61
2022/03/17 05:04:52;;;;;;;28.55;25.83;;;;;;;10.72;54.17;100880.06;10349662;28;20081;-62
2022/03/17 05:09:54;;;;;;;29.15;26.38;;;;;;;10.73;54.42;100880.91;10349194;28;20069;-61
2022/03/17 05:14:55;;;;;;;29.58;26.67;;;;;;;10.74;54.20;100890.59;10352554;28;20057;-62
2022/03/17 05:19:56;;;;;;;28.50;25.60;;;;;;;10.70;53.93;100883.78;10349991;28;20432;-61
2022/03/17 05:24:58;;;;;;;29.73;26.63;;;;;;;10.64;53.90;100898.38;10356258;28;20120;-61
2022/03/17 05:29:59;;;;;;;31.90;28.70;;;;;;;10.58;54.25;100912.13;10358641;28;20077;-62
2022/03/17 05:35:01;;;;;;;27.52;24.83;;;;;;;10.60;54.31;100919.06;10358680;28;20173;-61
2022/03/17 05:40:13;;;;;;;29.38;26.38;;;;;;;10.53;54.29;100912.44;10359000;28;20057;-61
2022/03/17 05:45:16;;;;;;;30.25;27.30;;;;;;;10.55;54.65;100920.31;10364064;28;20264;-62
2022/03/17 05:50:20;;;;;;;29.00;26.20;;;;;;;10.65;54.35;100931.19;10374668;28;20536;-61
2022/03/17 05:55:25;;;;;;;28.47;25.60;;;;;;;10.61;54.47;100919.88;10364404;28;20060;-61
2022/03/17 06:00:28;;;;;;;28.80;26.02;;;;;;;10.63;54.53;100919.78;10354657;28;20101;-62
2022/03/17 06:05:30;;;;;;;28.80;25.90;;;;;;;10.75;54.36;100951.75;10363691;28;20058;-65
2022/03/17 06:10:33;;;;;;;30.95;27.88;;;;;;;10.81;54.43;100953.13;10348230;28;20057;-61
2022/03/17 06:15:35;;;;;;;30.27;27.27;;;;;;;10.74;54.50;100951.84;10384921;28;20101;-66
2022/03/17 06:20:37;;;;;;;30.20;27.17;;;;;;;10.67;54.45;100946.09;10376822;28;20049;-62
2022/03/17 06:25:38;;;;;;;29.33;26.48;;;;;;;10.78;54.23;100979.97;10356488;28;20135;-63
2022/03/17 06:30:41;;;;;;;30.27;27.38;;;;;;;10.83;54.30;100976.97;10374819;28;20766;-61
2022/03/17 06:35:42;;;;;;;28.92;26.05;;;;;;;10.79;54.03;100976.31;10366471;28;20045;-62
2022/03/17 06:40:44;;;;;;;31.55;28.45;;;;;;;10.70;53.88;100993.78;10363994;28;20117;-61
2022/03/17 06:45:45;;;;;;;29.20;26.27;;;;;;;10.72;53.78;100985.69;10380314;28;20049;-61
2022/03/17 06:50:46;;;;;;;28.58;25.77;;;;;;;10.82;53.65;100997.41;10378972;28;20076;-60
2022/03/17 06:55:48;;;;;;;30.20;27.10;;;;;;;10.93;53.79;101010.84;10392542;28;20126;-61
2022/03/17 07:00:49;;;;;;;30.83;27.92;;;;;;;11.02;53.34;101016.47;10389405;28;20195;-62
2022/03/17 07:05:51;;;;;;;31.25;28.13;;;;;;;11.11;52.84;101008.72;10388405;28;20045;-60
2022/03/17 07:10:52;;;;;;;28.98;26.08;;;;;;;11.22;53.03;101012.44;10389370;28;20055;-60
2022/03/17 07:15:55;;;;;;;29.88;26.80;;;;;;;11.30;52.76;101029.59;10393636;28;20109;-63
2022/03/17 07:20:59;;;;;;;30.38;27.40;;;;;;;11.34;52.44;101045.34;10370679;28;20073;-63
2022/03/17 07:26:03;;;;;;;30.60;26.65;;;;;;;11.36;52.71;101052.25;10378773;28;20054;-59
2022/03/17 07:31:04;;;;;;;30.05;27.15;;;;;;;11.34;52.49;101051.53;10344254;28;20053;-60
2022/03/17 07:36:06;;;;;;;31.95;28.30;;;;;;;11.30;52.65;101066.03;10347992;28;20918;-60
2022/03/17 07:41:07;;;;;;;30.63;27.42;;;;;;;11.22;52.44;101061.25;10349021;28;20131;-60
2022/03/17 07:46:10;;;;;;;31.00;27.95;;;;;;;11.21;52.84;101056.84;10354983;28;20060;-61
2022/03/17 07:51:12;;;;;;;31.38;28.23;;;;;;;11.29;52.80;101059.84;10351305;28;20059;-61
2022/03/17 07:56:14;;;;;;;30.60;27.58;;;;;;;11.23;52.76;101062.06;10345342;28;20207;-59
2022/03/17 08:01:16;;;;;;;29.73;26.73;;;;;;;11.37;52.71;101066.47;10341855;28;20060;-60
2022/03/17 08:06:18;;;;;;;30.08;27.23;;;;;;;11.35;52.47;101063.91;10356415;28;20310;-60
2022/03/17 08:11:22;;;;;;;30.58;27.30;;;;;;;11.42;52.28;101080.28;10339922;28;20053;-60
2022/03/17 08:16:23;;;;;;;29.43;26.73;;;;;;;11.39;52.40;101081.34;10337574;28;20471;-60
2022/03/17 08:21:25;;;;;;;30.42;27.42;;;;;;;11.37;52.34;101071.78;10337215;28;20050;-60
2022/03/17 08:26:26;;;;;;;30.58;26.85;;;;;;;11.47;52.05;101087.00;10340700;28;20188;-61
2022/03/17 08:31:28;;;;;;;31.65;28.63;;;;;;;11.46;51.99;101105.78;10339927;28;20121;-60
2022/03/17 08:36:29;;;;;;;30.33;27.33;;;;;;;11.46;52.12;101106.63;10337959;28;20555;-60
2022/03/17 08:41:31;;;;;;;31.80;28.60;;;;;;;11.49;51.81;101119.75;10341475;28;20041;-60
2022/03/17 08:51:55;;;;;;;32.42;29.42;;;;;;;11.65;51.23;101124.84;10335896;28;20427;-60
2022/03/17 08:57:01;;;;;;;31.58;28.30;;;;;;;11.82;51.10;101136.13;10333073;28;20523;-60
2022/03/17 09:02:06;;;;;;;32.13;28.90;;;;;;;11.83;50.98;101132.50;10343481;28;20057;-61
2022/03/17 09:07:08;;;;;;;32.08;28.88;;;;;;;11.95;51.10;101141.44;10346894;28;20050;-60
2022/03/17 09:12:09;;;;;;;31.55;28.17;;;;;;;12.05;50.88;101155.00;10347411;28;20068;-61
2022/03/17 09:17:11;;;;;;;31.95;28.90;;;;;;;12.00;50.78;101153.50;10346161;28;20069;-61
2022/03/17 09:22:12;;;;;;;31.90;28.52;;;;;;;12.05;50.65;101157.66;10350832;28;20597;-65
2022/03/17 09:27:14;;;;;;;32.97;29.88;;;;;;;12.10;50.21;101158.16;10347732;28;20050;-61
2022/03/17 09:32:16;;;;;;;32.60;29.25;;;;;;;12.13;50.10;101168.63;10346071;28;20049;-60
2022/03/17 09:37:17;;;;;;;31.33;28.33;;;;;;;12.05;50.54;101163.00;10343679;28;20049;-60
2022/03/17 09:42:21;;;;;;;31.67;28.50;;;;;;;12.15;50.36;101172.03;10341976;28;20260;-60
2022/03/17 09:47:27;;;;;;;32.25;29.00;;;;;;;12.14;50.20;101181.84;10342157;28;20061;-60
2022/03/17 09:52:29;;;;;;;31.13;28.00;;;;;;;12.14;50.56;101189.00;10343100;28;20050;-61
2022/03/17 09:57:31;;;;;;;29.90;26.90;;;;;;;12.27;50.42;101187.16;10344561;28;20734;-60
2022/03/17 10:02:35;;;;;;;32.88;29.58;;;;;;;12.39;49.71;101204.09;10344582;28;20416;-60
2022/03/17 10:07:39;;;;;;;32.30;28.98;;;;;;;12.23;49.71;101175.00;10343705;28;20073;-60
2022/03/17 10:12:40;;;;;;;31.83;28.67;;;;;;;12.47;49.65;101217.72;10344192;28;20084;-60
2022/03/17 10:17:42;;;;;;;32.03;29.00;;;;;;;12.46;49.82;101231.19;10352433;28;20152;-59
2022/03/17 10:22:49;;;;;;;31.08;28.08;;;;;;;12.40;49.94;101227.19;10354094;28;20072;-60
2022/03/17 10:27:55;;;;;;;31.38;28.17;;;;;;;12.43;50.09;101237.63;10348191;28;20075;-60
2022/03/17 10:33:01;;;;;;;31.40;28.33;;;;;;;12.37;50.12;101230.91;10346236;28;20073;-60
2022/03/17 10:38:19;;;;;;;33.20;30.02;;;;;;;12.42;49.70;101240.41;10345603;28;20118;-59
2022/03/17 10:43:23;;;;;;;31.58;28.38;;;;;;;12.44;50.09;101250.00;10343440;28;20559;-60
2022/03/17 10:48:24;;;;;;;32.72;29.40;;;;;;;12.53;50.21;101267.19;10345849;28;20277;-61
2022/03/17 10:53:30;;;;;;;34.25;30.65;;;;;;;12.48;50.26;101264.84;10339137;28;20064;-61
2022/03/17 10:58:41;;;;;;;30.65;27.77;;;;;;;12.47;50.36;101267.63;10348800;28;20057;-60
2022/03/17 11:04:04;;;;;;;32.67;29.25;;;;;;;12.48;50.63;101253.31;10339289;28;20476;-59
2022/03/17 11:09:08;;;;;;;31.55;28.30;;;;;;;12.62;49.89;101274.53;10341210;28;20054;-59
2022/03/17 11:14:13;;;;;;;31.60;28.47;;;;;;;12.55;50.15;101267.94;10341788;28;20053;-60
2022/03/17 11:19:17;;;;;;;32.30;29.40;;;;;;;12.65;50.65;101282.31;10346454;28;20289;-62
2022/03/17 11:24:20;;;;;;;31.05;28.05;;;;;;;12.56;50.75;101269.63;10338740;28;20050;-59
2022/03/17 11:29:25;;;;;;;32.20;28.83;;;;;;;12.65;52.00;101290.31;10339554;28;20126;-59
2022/03/17 11:34:38;;;;;;;;;;;;;;;12.66;53.59;101300.06;10343539;28;20053;-60
2022/03/17 11:39:52;;;;;;;31.23;28.05;;;;;;;12.70;54.84;101301.53;10357502;28;19925;-60
2022/03/17 11:45:20;;;;;;;31.73;28.55;;;;;;;12.69;55.72;101310.50;10339739;28;20054;-60
2022/03/17 11:50:28;;;;;;;33.38;29.98;;;;;;;12.60;56.91;101324.53;10324791;28;20815;-60
2022/03/17 11:55:41;;;;;;;32.10;28.98;;;;;;;12.56;58.84;101325.72;10333187;28;20248;-59
2022/03/17 12:00:46;;;;;;;32.40;29.10;;;;;;;12.57;58.47;101332.78;10338155;28;20182;-60
2022/03/17 12:06:10;;;;;;;31.85;28.65;;;;;;;12.50;58.96;101334.16;10337438;28;20058;-59
2022/03/17 12:11:13;;;;;;;28.17;25.30;;;;;;;12.42;62.33;101347.22;10338906;28;20061;-60
2022/03/17 12:16:17;;;;;;;23.17;20.70;;;;;;;12.08;65.91;101355.75;10341734;28;20053;-60
2022/03/17 12:21:58;;;;;;;18.88;16.92;;;;;;;12.06;66.78;101370.19;10339500;28;20124;-60
2022/03/17 12:27:09;;;;;;;17.40;15.40;;;;;;;11.95;67.17;101366.44;10340254;28;20052;-62
2022/03/17 12:32:19;;;;;;;14.18;12.73;;;;;;;12.00;67.04;101385.66;10340836;28;20077;-60
2022/03/17 12:37:24;;;;;;;14.38;11.95;;;;;;;11.92;67.77;101373.75;10337869;28;20053;-59
2022/03/17 12:42:28;;;;;;;12.82;11.23;;;;;;;11.87;67.85;101368.75;10336416;28;20475;-60
2022/03/17 12:47:31;;;;;;;12.35;10.27;;;;;;;11.93;67.72;101373.69;10339786;28;20041;-59
2022/03/17 12:52:34;;;;;;;10.70;9.60;;;;;;;11.89;67.00;101371.31;10333400;28;20053;-60
2022/03/17 12:57:37;;;;;;;10.82;9.73;;;;;;;11.79;68.11;101387.09;10339179;28;20049;-61
2022/03/17 13:02:54;;;;;;;11.13;9.70;;;;;;;11.75;68.78;101390.91;10338220;28;20630;-60
2022/03/17 13:07:57;;;;;;;10.93;9.35;;;;;;;11.71;69.10;101392.06;10338653;28;20049;-60
2022/03/17 13:18:18;;;;;;;10.13;9.18;;;;;;;11.67;69.96;101394.09;10337639;28;20060;-59
2022/03/17 13:23:20;;;;;;;15.23;10.15;;;;;;;11.67;69.43;101394.94;10333450;28;20929;-61
2022/03/17 13:28:21;;;;;;;10.40;9.27;;;;;;;11.63;68.88;101408.59;10339492;28;20049;-60
2022/03/17 13:33:32;;;;;;;10.90;9.80;;;;;;;11.55;69.33;101409.09;10338547;28;20049;-61
2022/03/17 13:38:35;;;;;;;12.98;10.43;;;;;;;11.52;69.70;101403.13;10339476;28;20597;-60
2022/03/17 13:43:37;;;;;;;11.38;10.25;;;;;;;11.62;68.81;101397.09;10339019;28;20146;-59
2022/03/17 13:48:38;;;;;;;12.23;11.02;;;;;;;11.33;70.21;101417.66;10346871;28;20165;-59
2022/03/17 13:53:40;;;;;;;12.00;10.80;;;;;;;11.50;69.14;101414.75;10347422;28;20136;-61
2022/03/17 13:58:43;;;;;;;11.80;10.63;;;;;;;11.35;69.49;101414.88;10344779;28;20663;-60
2022/03/17 14:03:58;;;;;;;12.15;10.95;;;;;;;11.44;69.16;101428.50;10343142;28;20221;-63
2022/03/17 14:09:02;;;;;;;11.93;9.93;;;;;;;11.18;69.25;101430.16;10342891;28;20049;-65
2022/03/17 14:14:09;;;;;;;12.05;10.20;;;;;;;11.23;69.66;101438.72;10344263;28;20099;-60
2022/03/17 14:19:12;;;;;;;12.07;10.90;;;;;;;11.09;69.77;101436.09;10343829;28;20183;-59
2022/03/17 14:24:13;;;;;;;12.45;9.73;;;;;;;11.14;69.17;101434.00;10347453;28;20087;-59
2022/03/17 14:29:17;;;;;;;10.35;9.35;;;;;;;11.40;67.80;101452.78;10370818;28;20065;-59
2022/03/17 14:34:22;;;;;;;9.93;8.90;;;;;;;11.11;69.03;101440.38;10367744;28;20046;-60
2022/03/17 14:39:24;;;;;;;11.55;8.80;;;;;;;11.30;67.72;101449.84;10347202;28;20078;-60
2022/03/17 14:44:25;;;;;;;10.30;8.65;;;;;;;11.46;67.04;101468.38;10345015;28;20111;-60
2022/03/17 14:49:27;;;;;;;9.85;8.77;;;;;;;11.60;66.21;101472.81;10351758;28;20041;-58
2022/03/17 14:54:28;;;;;;;12.43;8.93;;;;;;;11.60;65.99;101473.66;10346149;28;20101;-59
2022/03/17 14:59:32;;;;;;;10.73;8.57;;;;;;;11.57;65.05;101483.69;10341947;28;20775;-59
2022/03/17 15:04:33;;;;;;;9.45;8.55;;;;;;;11.41;64.93;101487.34;10343891;28;20132;-59
2022/03/17 15:09:42;;;;;;;10.80;9.02;;;;;;;11.45;64.64;101496.00;10342662;28;20419;-59
2022/03/17 15:14:43;;;;;;;10.93;9.75;;;;;;;11.30;64.24;101492.50;10343664;28;21239;-60
2022/03/17 15:19:45;;;;;;;9.73;8.52;;;;;;;11.10;63.94;101509.75;10344350;28;20042;-59
2022/03/17 15:24:47;;;;;;;9.80;8.35;;;;;;;11.02;63.17;101520.91;10343173;28;20092;-60
2022/03/17 15:35:10;;;;;;;9.80;8.80;;;;;;;11.03;62.76;101525.25;10338564;28;20155;-59
2022/03/17 15:40:12;;;;;;;8.38;7.60;;;;;;;11.06;62.71;101530.38;10342710;28;20495;-59
2022/03/17 15:45:14;;;;;;;9.38;8.27;;;;;;;11.11;62.84;101540.78;10341005;28;20057;-61
2022/03/17 15:50:17;;;;;;;8.93;7.80;;;;;;;11.03;62.76;101530.59;10339209;28;20052;-60
2022/03/17 15:55:18;;;;;;;10.90;7.70;;;;;;;11.10;63.39;101555.91;10339128;28;20420;-62
2022/03/17 16:00:26;;;;;;;9.48;8.05;;;;;;;11.19;62.41;101574.97;10338615;28;20050;-59
2022/03/17 16:05:28;;;;;;;8.10;7.30;;;;;;;10.95;62.35;101573.69;10344948;28;20065;-59
2022/03/17 16:15:50;;;;;;;8.15;6.80;;;;;;;11.06;61.81;101590.84;10339015;28;20129;-59
2022/03/17 16:20:52;;;;;;;7.93;6.90;;;;;;;11.02;61.53;101594.63;10338847;28;20531;-59
2022/03/17 16:25:54;;;;;;;7.88;7.18;;;;;;;10.93;61.35;101601.41;10341935;28;20527;-60
2022/03/17 16:30:56;;;;;;;7.35;6.65;;;;;;;10.89;61.58;101611.38;10337136;28;20737;-60
2022/03/17 16:35:57;;;;;;;6.80;6.10;;;;;;;10.93;61.37;101607.56;10343212;28;20077;-62
2022/03/17 16:40:59;;;;;;;7.72;6.65;;;;;;;10.82;61.42;101588.69;10335948;28;20064;-62
2022/03/17 16:46:00;;;;;;;7.22;6.53;;;;;;;11.00;61.49;101613.38;10340981;28;20057;-62
2022/03/17 16:51:06;;;;;;;7.68;6.93;;;;;;;11.14;61.52;101628.53;10337089;28;20443;-61
2022/03/17 16:56:07;;;;;;;8.07;6.20;;;;;;;11.06;61.15;101634.31;10336553;28;23857;-60
2022/03/17 17:01:11;;;;;;;6.20;5.60;;;;;;;11.05;60.74;101637.06;10334930;28;20470;-61
2022/03/17 17:06:14;;;;;;;11.52;6.15;;;;;;;11.10;60.69;101656.31;10339297;28;20052;-63
2022/03/17 17:11:15;;;;;;;5.93;5.38;;;;;;;10.76;60.55;101613.03;10332268;28;20053;-62
2022/03/17 17:16:19;;;;;;;6.15;5.55;;;;;;;11.02;60.89;101683.44;10336808;28;20046;-62
2022/03/17 17:21:21;;;;;;;5.80;5.22;;;;;;;10.72;60.27;101643.47;10346818;28;20053;-61
2022/03/17 17:31:42;;;;;;;5.93;5.30;;;;;;;10.74;60.23;101678.88;10347494;28;20065;-61
2022/03/17 17:36:48;;;;;;;6.10;5.50;;;;;;;10.75;60.19;101710.75;10351905;28;20538;-62
2022/03/17 17:41:49;;;;;;;6.10;4.95;;;;;;;10.85;60.20;101719.03;10348267;28;20049;-63
2022/03/17 17:46:51;;;;;;;9.32;5.07;;;;;;;10.77;60.07;101708.84;10337089;28;20059;-62
2022/03/17 17:51:52;;;;;;;5.78;5.03;;;;;;;10.71;60.82;101714.53;10337802;28;20052;-63
2022/03/17 17:56:54;;;;;;;8.18;5.57;;;;;;;10.79;60.45;101732.72;10343307;28;20161;-62
2022/03/17 18:01:55;;;;;;;6.78;5.85;;;;;;;10.77;60.72;101735.47;10347566;28;21969;-63
2022/03/17 18:06:57;;;;;;;6.10;5.35;;;;;;;10.80;60.84;101745.09;10345402;28;20140;-64
2022/03/17 18:11:59;;;;;;;8.23;6.10;;;;;;;10.78;60.96;101755.00;10345531;28;20195;-64
2022/03/17 18:17:01;;;;;;;6.70;6.03;;;;;;;10.75;61.02;101747.19;10354112;28;20055;-63
2022/03/17 18:22:03;;;;;;;6.63;5.90;;;;;;;10.80;61.06;101761.09;10349439;28;20046;-61
2022/03/17 18:27:05;;;;;;;7.00;5.78;;;;;;;10.76;60.82;101765.75;10344530;28;20052;-61
2022/03/17 18:32:07;;;;;;;6.90;6.20;;;;;;;10.75;61.28;101776.47;10342943;28;20137;-60
2022/03/17 18:37:08;;;;;;;7.65;6.30;;;;;;;10.72;61.07;101776.63;10341462;28;20053;-60
2022/03/17 18:42:09;;;;;;;9.38;6.63;;;;;;;10.72;61.71;101785.50;10344909;28;20049;-61
2022/03/17 18:47:11;;;;;;;7.65;6.05;;;;;;;10.75;61.32;101789.81;10342052;28;22784;-61
2022/03/17 18:52:12;;;;;;;8.45;6.47;;;;;;;10.63;61.14;101782.47;10341901;28;20045;-60
2022/03/17 18:57:14;;;;;;;8.30;5.85;;;;;;;10.46;61.40;101773.63;10346904;28;20045;-64
2022/03/17 19:02:16;;;;;;;6.30;5.68;;;;;;;10.70;60.85;101818.47;10341237;28;20045;-61
2022/03/17 19:07:18;;;;;;;6.97;4.88;;;;;;;10.65;60.32;101826.72;10344319;28;20049;-61
2022/03/17 19:12:20;;;;;;;8.55;4.82;;;;;;;10.52;60.13;101839.84;10341145;28;20075;-60
2022/03/17 19:17:21;;;;;;;4.55;3.25;;;;;;;10.52;59.19;101837.19;10340088;28;20045;-63
2022/03/17 19:22:31;;;;;;;3.70;3.03;;;;;;;10.77;59.66;101836.69;10343755;28;20188;-62
2022/03/17 19:27:33;;;;;;;4.78;3.45;;;;;;;11.23;57.75;101849.22;10342121;28;20520;-64
2022/03/17 19:32:34;;;;;;;4.18;1.75;;;;;;;11.84;55.56;101867.84;10344631;28;20058;-64
2022/03/17 19:37:36;;;;;;;6.78;1.50;;;;;;;11.65;52.80;101868.13;10345342;28;20137;-66
2022/03/17 19:42:38;;;;;;;4.93;2.17;;;;;;;11.24;53.81;101877.56;10342933;28;20049;-60
2022/03/17 19:47:39;;;;;;;5.78;2.10;;;;;;;10.78;54.53;101882.84;10345435;28;20065;-64
2022/03/17 19:52:41;;;;;;;5.57;1.83;;;;;;;10.37;55.48;101891.28;10342425;28;21112;-61
2022/03/17 19:57:42;;;;;;;5.35;2.22;;;;;;;10.23;55.70;101903.47;10342179;28;20129;-61
2022/03/17 20:02:44;;;;;;;6.88;1.45;;;;;;;9.75;56.61;101885.63;10339852;28;20714;-62
2022/03/17 20:07:46;;;;;;;6.18;2.20;;;;;;;9.83;56.64;101913.56;10344082;28;20837;-61
2022/03/17 20:18:08;;;;;;;6.00;2.25;;;;;;;9.70;57.09;101933.72;10342783;28;20084;-62
2022/03/17 20:23:09;;;;;;;4.43;1.90;;;;;;;9.50;57.15;101935.56;10340413;28;20058;-62
2022/03/17 20:28:11;;;;;;;6.18;2.13;;;;;;;9.35;57.60;101917.69;10339134;28;20053;-62
2022/03/17 20:33:12;;;;;;;6.57;2.05;;;;;;;9.32;57.86;101939.09;10340982;28;20211;-62
2022/03/17 20:38:14;;;;;;;5.93;2.33;;;;;;;9.16;57.61;101918.59;10340477;28;20543;-62
2022/03/17 20:43:16;;;;;;;5.03;1.70;;;;;;;9.24;58.00;101952.75;10339800;28;20053;-62
2022/03/17 20:48:18;;;;;;;4.43;2.30;;;;;;;9.22;57.95;101959.06;10339582;28;20220;-63
2022/03/17 20:53:20;;;;;;;6.65;2.00;;;;;;;9.14;58.19;101955.00;10341174;28;20054;-61
2022/03/17 20:58:22;;;;;;;6.30;2.08;;;;;;;9.23;58.06;101963.47;10352311;28;20049;-62
2022/03/17 21:03:23;;;;;;;6.05;1.90;;;;;;;9.12;58.41;101964.84;10351832;28;20053;-62
2022/03/17 21:08:25;;;;;;;10.10;2.30;;;;;;;8.98;58.42;101981.41;10349875;28;20115;-62
2022/03/17 21:13:26;;;;;;;7.78;2.58;;;;;;;8.95;58.62;101991.34;10350390;28;20053;-62
2022/03/17 21:18:27;;;;;;;7.75;2.05;;;;;;;8.79;58.72;101978.75;10350872;28;20915;-62
2022/03/17 21:23:29;;;;;;;5.47;1.95;;;;;;;8.82;58.82;102005.16;10354604;28;20060;-62
2022/03/17 21:28:30;;;;;;;6.03;2.33;;;;;;;8.83;58.93;102017.50;10350325;28;20431;-61
2022/03/17 21:33:31;;;;;;;4.20;2.00;;;;;;;8.78;58.65;102008.03;10356154;28;20053;-61
2022/03/17 21:38:33;;;;;;;5.50;2.17;;;;;;;8.72;58.92;102014.50;10355467;28;20050;-62
2022/03/17 21:43:35;;;;;;;6.07;2.10;;;;;;;8.68;59.09;102012.91;10353874;28;20054;-62
2022/03/17 21:48:37;;;;;;;4.45;2.13;;;;;;;8.61;59.23;102024.72;10345955;28;20098;-62
2022/03/17 21:53:39;;;;;;;5.93;2.03;;;;;;;8.51;59.49;102026.88;10349695;28;20057;-62
2022/03/17 21:58:40;;;;;;;7.60;2.63;;;;;;;8.51;59.63;102031.34;10352810;28;20058;-63
2022/03/17 22:03:41;;;;;;;8.55;2.90;;;;;;;8.47;59.78;102042.09;10353625;28;20061;-63
2022/03/17 22:08:43;;;;;;;6.20;1.98;;;;;;;8.47;59.71;102047.41;10346522;28;20135;-62
2022/03/17 22:13:45;;;;;;;7.35;2.40;;;;;;;8.48;59.80;102054.44;10341576;28;20377;-63
2022/03/17 22:18:47;;;;;;;6.00;2.17;;;;;;;8.47;59.48;102063.31;10342856;28;20061;-62
2022/03/17 22:23:49;;;;;;;6.00;2.30;;;;;;;8.35;59.69;102049.66;10342117;28;20053;-62
2022/03/17 22:28:51;;;;;;;5.22;2.40;;;;;;;8.44;59.44;102059.94;10344041;28;20057;-63
2022/03/17 22:33:52;;;;;;;4.82;2.47;;;;;;;8.33;59.94;102057.69;10339813;28;20077;-62
2022/03/17 22:38:53;;;;;;;8.48;2.63;;;;;;;8.31;59.81;102060.41;10342644;28;20077;-63
2022/03/17 22:43:55;;;;;;;9.80;2.97;;;;;;;8.04;60.38;102027.97;10343922;28;20061;-65
2022/03/17 22:48:59;;;;;;;14.70;3.80;;;;;;;8.38;60.59;102076.97;10342091;28;20518;-62
2022/03/17 22:54:01;;;;;;;10.68;2.35;;;;;;;8.40;60.15;102072.44;10345120;28;20131;-62
2022/03/17 22:59:03;;;;;;;7.80;2.70;;;;;;;8.28;60.42;102083.56;10343509;28;20175;-63
2022/03/17 23:04:04;;;;;;;7.72;2.88;;;;;;;8.08;60.99;102055.22;10346519;28;20108;-63
2022/03/17 23:09:05;;;;;;;6.93;3.00;;;;;;;8.23;61.00;102080.25;10344059;28;20197;-62
2022/03/17 23:14:07;;;;;;;8.02;2.70;;;;;;;8.16;61.71;102089.41;10345732;28;20685;-63
2022/03/17 23:19:12;;;;;;;9.63;3.25;;;;;;;8.11;61.76;102093.09;10340443;28;20663;-61
2022/03/17 23:24:18;;;;;;;5.20;2.22;;;;;;;8.06;61.88;102073.88;10344456;28;20266;-62
2022/03/17 23:29:19;;;;;;;6.90;2.53;;;;;;;8.07;62.14;102085.31;10340940;28;20162;-62
2022/03/17 23:34:20;;;;;;;5.55;2.88;;;;;;;8.13;61.81;102096.53;10341763;28;20411;-62